createdAt,value
2023-03-19T00:00:33.169Z,0
2023-03-19T00:01:33.674Z,0
2023-03-19T00:02:34.602Z,0
2023-03-19T00:03:35.475Z,0
2023-03-19T00:04:36.188Z,0
2023-03-19T00:05:36.918Z,0
2023-03-19T00:06:36.543Z,0
2023-03-19T00:07:37.753Z,0
2023-03-19T00:08:38.777Z,0
2023-03-19T00:09:38.970Z,0
2023-03-19T00:10:39.632Z,0
2023-03-19T00:11:40.877Z,0
2023-03-19T00:12:40.799Z,0
2023-03-19T00:13:42.050Z,0
2023-03-19T00:14:42.540Z,0
2023-03-19T00:15:42.834Z,0
2023-03-19T00:16:43.966Z,0
2023-03-19T00:17:44.195Z,0
2023-03-19T00:18:44.544Z,0
2023-03-19T00:19:45.163Z,0
2023-03-19T00:20:45.358Z,0
2023-03-19T00:21:47.606Z,0
2023-03-19T00:22:46.056Z,0
2023-03-19T00:23:46.694Z,0
2023-03-19T00:24:47.317Z,0
2023-03-19T00:25:49.328Z,0
2023-03-19T00:26:49.546Z,0
2023-03-19T00:27:49.972Z,0
2023-03-19T00:28:49.994Z,0
2023-03-19T00:29:50.191Z,0
2023-03-19T00:30:51.492Z,0
2023-03-19T00:31:51.162Z,0
2023-03-19T00:32:52.750Z,0
2023-03-19T00:33:53.284Z,0
2023-03-19T00:34:53.880Z,0
2023-03-19T00:35:54.252Z,0
2023-03-19T00:36:54.211Z,0
2023-03-19T00:37:55.154Z,0
2023-03-19T00:38:56.203Z,0
2023-03-19T00:39:56.411Z,0
2023-03-19T00:40:57.628Z,0
2023-03-19T00:41:57.835Z,0
2023-03-19T00:42:58.785Z,0
2023-03-19T00:43:59.005Z,0
2023-03-19T00:44:59.705Z,0
2023-03-19T00:46:01.213Z,0
2023-03-19T00:47:01.466Z,0
2023-03-19T00:48:01.385Z,0
2023-03-19T00:49:01.866Z,0
2023-03-19T00:50:03.687Z,0
2023-03-19T00:51:03.892Z,0
2023-03-19T00:52:05.155Z,0
2023-03-19T00:53:05.081Z,0
2023-03-19T00:54:05.460Z,0
2023-03-19T00:55:05.953Z,0
2023-03-19T00:56:05.336Z,0
2023-03-19T00:57:06.002Z,0
2023-03-19T00:58:07.504Z,0
2023-03-19T00:59:07.834Z,0
2023-03-19T01:00:08.044Z,0
2023-03-19T01:01:07.611Z,0
2023-03-19T01:02:08.585Z,0
2023-03-19T01:03:08.942Z,0
2023-03-19T01:04:10.079Z,0
2023-03-19T01:05:11.123Z,0
2023-03-19T01:06:11.333Z,0
2023-03-19T01:07:12.274Z,0
2023-03-19T01:08:13.205Z,0
2023-03-19T01:09:13.099Z,0
2023-03-19T01:10:13.964Z,0
2023-03-19T01:11:15.191Z,0
2023-03-19T01:12:14.546Z,0
2023-03-19T01:13:15.216Z,0
2023-03-19T01:14:16.149Z,0
2023-03-19T01:15:17.372Z,0
2023-03-19T01:16:17.622Z,0
2023-03-19T01:17:17.768Z,0
2023-03-19T01:18:18.708Z,0
2023-03-19T01:19:18.243Z,0
2023-03-19T01:20:19.575Z,0
2023-03-19T01:21:19.789Z,0
2023-03-19T01:22:20.732Z,0
2023-03-19T01:23:20.631Z,0
2023-03-19T01:24:21.008Z,0
2023-03-19T01:25:22.261Z,0
2023-03-19T01:26:23.218Z,0
2023-03-19T01:27:23.146Z,0
2023-03-19T01:28:24.080Z,0
2023-03-19T01:29:24.815Z,0
2023-03-19T01:30:25.562Z,0
2023-03-19T01:31:27.087Z,0
2023-03-19T01:32:27.324Z,0
2023-03-19T01:33:30.655Z,0
2023-03-19T01:34:28.014Z,0
2023-03-19T01:35:29.786Z,0
2023-03-19T01:36:29.421Z,0
2023-03-19T01:37:30.614Z,0
2023-03-19T01:38:31.237Z,0
2023-03-19T01:39:32.265Z,0
2023-03-19T01:40:33.215Z,0
2023-03-19T01:41:33.854Z,0
2023-03-19T01:42:33.504Z,0
2023-03-19T01:43:34.435Z,0
2023-03-19T01:44:34.647Z,0
2023-03-19T01:45:34.852Z,0
2023-03-19T01:46:35.983Z,0
2023-03-19T01:47:36.198Z,0
2023-03-19T01:48:37.046Z,0
2023-03-19T01:49:37.524Z,0
2023-03-19T01:50:38.699Z,0
2023-03-19T01:51:37.941Z,0
2023-03-19T01:52:38.296Z,0
2023-03-19T01:53:38.703Z,0
2023-03-19T01:54:39.626Z,0
2023-03-19T01:55:40.555Z,0
2023-03-19T01:56:41.051Z,0
2023-03-19T01:57:41.259Z,0
2023-03-19T01:58:42.640Z,0
2023-03-19T01:59:41.698Z,0
2023-03-19T02:00:43.430Z,0
2023-03-19T02:01:43.252Z,0
2023-03-19T02:02:43.618Z,0
2023-03-19T02:03:44.834Z,0
2023-03-19T02:04:45.080Z,0
2023-03-19T02:05:45.702Z,0
2023-03-19T02:06:45.631Z,0
2023-03-19T02:07:46.578Z,0
2023-03-19T02:08:47.806Z,0
2023-03-19T02:09:48.614Z,0
2023-03-19T02:10:49.419Z,0
2023-03-19T02:11:49.644Z,0
2023-03-19T02:12:49.326Z,0
2023-03-19T02:13:50.258Z,0
2023-03-19T02:14:51.207Z,0
2023-03-19T02:15:52.502Z,0
2023-03-19T02:16:52.416Z,0
2023-03-19T02:17:53.756Z,0
2023-03-19T02:18:53.683Z,0
2023-03-19T02:19:55.012Z,0
2023-03-19T02:20:55.762Z,0
2023-03-19T02:21:55.678Z,0
2023-03-19T02:22:56.616Z,0
2023-03-19T02:23:57.134Z,0
2023-03-19T02:24:57.045Z,0
2023-03-19T02:25:57.250Z,0
2023-03-19T02:26:58.176Z,0
2023-03-19T02:27:58.844Z,0
2023-03-19T02:28:59.499Z,0
2023-03-19T02:30:02.916Z,0
2023-03-19T02:31:01.040Z,0
2023-03-19T02:32:01.191Z,0
2023-03-19T02:33:02.413Z,0
2023-03-19T02:34:02.625Z,0
2023-03-19T02:35:03.845Z,0
2023-03-19T02:36:04.851Z,0
2023-03-19T02:37:04.779Z,0
2023-03-19T02:38:05.729Z,0
2023-03-19T02:39:06.946Z,0
2023-03-19T02:40:07.457Z,0
2023-03-19T02:41:07.665Z,0
2023-03-19T02:42:07.870Z,0
2023-03-19T02:43:08.123Z,0
2023-03-19T02:44:08.731Z,0
2023-03-19T02:45:08.070Z,0
2023-03-19T02:46:09.057Z,0
2023-03-19T02:47:10.379Z,0
2023-03-19T02:48:10.886Z,0
2023-03-19T02:49:10.518Z,0
2023-03-19T02:50:11.855Z,0
2023-03-19T02:51:12.461Z,0
2023-03-19T02:52:12.406Z,0
2023-03-19T02:53:13.905Z,0
2023-03-19T02:54:13.869Z,0
2023-03-19T02:55:14.086Z,0
2023-03-19T02:56:13.445Z,0
2023-03-19T02:57:14.377Z,0
2023-03-19T02:58:15.046Z,0
2023-03-19T02:59:15.997Z,0
2023-03-19T03:00:17.070Z,0
2023-03-19T03:01:18.019Z,0
2023-03-19T03:02:19.054Z,0
2023-03-19T03:03:19.549Z,0
2023-03-19T03:04:19.753Z,0
2023-03-19T03:05:19.994Z,0
2023-03-19T03:06:20.638Z,0
2023-03-19T03:07:21.128Z,0
2023-03-19T03:08:21.666Z,0
2023-03-19T03:09:22.161Z,0
2023-03-19T03:10:22.461Z,0
2023-03-19T03:11:22.688Z,0
2023-03-19T03:12:23.039Z,0
2023-03-19T03:13:23.950Z,0
2023-03-19T03:14:24.617Z,0
2023-03-19T03:15:25.530Z,0
2023-03-19T03:16:27.102Z,0
2023-03-19T03:17:27.309Z,0
2023-03-19T03:18:27.868Z,0
2023-03-19T03:19:28.083Z,0
2023-03-19T03:20:28.414Z,0
2023-03-19T03:21:29.112Z,0
2023-03-19T03:22:29.063Z,0
2023-03-19T03:23:29.991Z,0
2023-03-19T03:24:29.914Z,0
2023-03-19T03:25:30.842Z,0
2023-03-19T03:26:31.797Z,0
2023-03-19T03:27:33.018Z,0
2023-03-19T03:28:33.699Z,0
2023-03-19T03:29:34.619Z,0
2023-03-19T03:30:36.009Z,0
2023-03-19T03:31:36.492Z,0
2023-03-19T03:32:36.459Z,0
2023-03-19T03:33:37.110Z,0
2023-03-19T03:34:38.029Z,0
2023-03-19T03:35:38.858Z,0
2023-03-19T03:36:40.328Z,0
2023-03-19T03:37:40.351Z,0
2023-03-19T03:38:41.555Z,0
2023-03-19T03:39:41.779Z,0
2023-03-19T03:40:42.442Z,0
2023-03-19T03:41:42.085Z,0
2023-03-19T03:42:42.786Z,0
2023-03-19T03:43:43.419Z,0
2023-03-19T03:44:44.355Z,0
2023-03-19T03:45:45.551Z,0
2023-03-19T03:46:46.221Z,0
2023-03-19T03:47:47.148Z,0
2023-03-19T03:48:47.802Z,0
2023-03-19T03:49:48.784Z,0
2023-03-19T03:50:49.566Z,0
2023-03-19T03:51:51.361Z,0
2023-03-19T03:52:51.285Z,0
2023-03-19T03:53:51.966Z,0
2023-03-19T03:54:52.882Z,0
2023-03-19T03:55:52.519Z,0
2023-03-19T03:56:53.455Z,0
2023-03-19T03:57:53.211Z,0
2023-03-19T03:58:54.144Z,0
2023-03-19T03:59:54.794Z,0
2023-03-19T04:00:56.426Z,0
2023-03-19T04:01:56.446Z,0
2023-03-19T04:02:56.759Z,0
2023-03-19T04:03:57.756Z,0
2023-03-19T04:04:57.982Z,0
2023-03-19T04:05:58.339Z,0
2023-03-19T04:06:59.995Z,0
2023-03-19T04:08:00.220Z,0
2023-03-19T04:09:00.137Z,0
2023-03-19T04:10:01.351Z,0
2023-03-19T04:11:01.641Z,0
2023-03-19T04:12:02.480Z,0
2023-03-19T04:13:02.438Z,0
2023-03-19T04:14:03.641Z,0
2023-03-19T04:15:04.141Z,0
2023-03-19T04:16:03.775Z,0
2023-03-19T04:17:04.605Z,0
2023-03-19T04:18:05.326Z,0
2023-03-19T04:19:06.276Z,0
2023-03-19T04:20:07.200Z,0
2023-03-19T04:21:07.258Z,0
2023-03-19T04:22:09.082Z,0
2023-03-19T04:23:09.029Z,0
2023-03-19T04:24:10.579Z,0
2023-03-19T04:25:10.534Z,0
2023-03-19T04:26:11.125Z,0
2023-03-19T04:27:10.781Z,0
2023-03-19T04:28:11.999Z,0
2023-03-19T04:29:12.916Z,0
2023-03-19T04:30:12.286Z,0
2023-03-19T04:31:13.626Z,0
2023-03-19T04:32:13.579Z,0
2023-03-19T04:33:14.792Z,0
2023-03-19T04:34:14.724Z,0
2023-03-19T04:35:15.939Z,0
2023-03-19T04:36:16.105Z,0
2023-03-19T04:37:17.446Z,0
2023-03-19T04:38:17.377Z,0
2023-03-19T04:39:18.327Z,0
2023-03-19T04:40:18.829Z,0
2023-03-19T04:41:19.148Z,0
2023-03-19T04:42:19.707Z,0
2023-03-19T04:43:18.814Z,0
2023-03-19T04:44:19.467Z,0
2023-03-19T04:45:20.974Z,0
2023-03-19T04:46:21.201Z,0
2023-03-19T04:47:21.739Z,0
2023-03-19T04:48:21.404Z,0
2023-03-19T04:49:22.908Z,0
2023-03-19T04:50:23.401Z,0
2023-03-19T04:51:23.107Z,0
2023-03-19T04:52:24.657Z,0
2023-03-19T04:53:24.644Z,0
2023-03-19T04:54:25.278Z,0
2023-03-19T04:55:25.656Z,0
2023-03-19T04:56:26.574Z,0
2023-03-19T04:57:27.072Z,0
2023-03-19T04:58:27.017Z,0
2023-03-19T04:59:28.733Z,0
2023-03-19T05:00:28.415Z,0
2023-03-19T05:01:28.952Z,0
2023-03-19T05:02:29.629Z,0
2023-03-19T05:03:30.577Z,0
2023-03-19T05:04:32.249Z,0
2023-03-19T05:05:31.891Z,0
2023-03-19T05:06:32.818Z,0
2023-03-19T05:07:34.416Z,0
2023-03-19T05:08:34.372Z,0
2023-03-19T05:09:35.291Z,0
2023-03-19T05:10:36.461Z,0
2023-03-19T05:11:36.870Z,0
2023-03-19T05:12:37.377Z,0
2023-03-19T05:13:38.123Z,0
2023-03-19T05:14:38.612Z,0
2023-03-19T05:15:38.432Z,0
2023-03-19T05:16:39.176Z,0
2023-03-19T05:17:40.405Z,0
2023-03-19T05:18:41.376Z,0
2023-03-19T05:19:41.363Z,0
2023-03-19T05:20:42.540Z,0
2023-03-19T05:21:42.600Z,0
2023-03-19T05:22:44.242Z,0
2023-03-19T05:23:44.781Z,0
2023-03-19T05:24:44.700Z,0
2023-03-19T05:25:45.367Z,0
2023-03-19T05:26:46.464Z,0
2023-03-19T05:27:47.417Z,0
2023-03-19T05:28:48.388Z,0
2023-03-19T05:29:52.312Z,0
2023-03-19T05:30:50.516Z,0
2023-03-19T05:31:51.374Z,0
2023-03-19T05:32:52.837Z,0
2023-03-19T05:33:52.785Z,0
2023-03-19T05:34:52.740Z,5.63
2023-03-19T05:35:55.440Z,5.63
2023-03-19T05:36:54.680Z,5.63
2023-03-19T05:37:55.286Z,5.63
2023-03-19T05:38:55.485Z,5.63
2023-03-19T05:39:55.709Z,5.63
2023-03-19T05:40:55.359Z,5.63
2023-03-19T05:41:56.974Z,5.63
2023-03-19T05:42:57.208Z,5.63
2023-03-19T05:43:56.853Z,11.25
2023-03-19T05:44:58.067Z,11.25
2023-03-19T05:45:57.750Z,11.25
2023-03-19T05:46:58.930Z,11.25
2023-03-19T05:47:59.142Z,11.25
2023-03-19T05:48:59.845Z,11.25
2023-03-19T05:50:00.782Z,11.25
2023-03-19T05:51:00.979Z,11.25
2023-03-19T05:52:02.044Z,11.25
2023-03-19T05:53:02.659Z,11.25
2023-03-19T05:54:02.583Z,11.25
2023-03-19T05:55:03.258Z,11.25
2023-03-19T05:56:04.200Z,11.25
2023-03-19T05:57:05.466Z,11.25
2023-03-19T05:58:05.448Z,11.25
2023-03-19T05:59:06.433Z,11.25
2023-03-19T06:00:07.371Z,11.25
2023-03-19T06:01:08.287Z,11.25
2023-03-19T06:02:08.040Z,11.25
2023-03-19T06:03:09.608Z,11.25
2023-03-19T06:04:11.498Z,5.63
2023-03-19T06:05:10.068Z,5.63
2023-03-19T06:06:10.389Z,5.63
2023-03-19T06:07:10.888Z,5.63
2023-03-19T06:08:11.228Z,5.63
2023-03-19T06:09:11.731Z,5.63
2023-03-19T06:10:11.658Z,5.63
2023-03-19T06:11:12.575Z,5.63
2023-03-19T06:12:13.578Z,5.63
2023-03-19T06:13:13.941Z,5.63
2023-03-19T06:14:15.162Z,5.63
2023-03-19T06:15:14.791Z,5.63
2023-03-19T06:16:16.517Z,5.63
2023-03-19T06:17:16.804Z,11.25
2023-03-19T06:18:17.299Z,11.25
2023-03-19T06:19:16.669Z,11.25
2023-03-19T06:20:18.181Z,11.25
2023-03-19T06:21:18.681Z,11.25
2023-03-19T06:22:19.055Z,11.25
2023-03-19T06:23:21.793Z,11.25
2023-03-19T06:24:20.001Z,11.25
2023-03-19T06:25:20.227Z,11.25
2023-03-19T06:26:20.898Z,11.25
2023-03-19T06:27:21.595Z,11.25
2023-03-19T06:28:22.839Z,11.25
2023-03-19T06:29:23.145Z,11.25
2023-03-19T06:30:23.357Z,11.25
2023-03-19T06:31:23.341Z,11.25
2023-03-19T06:32:24.117Z,11.25
2023-03-19T06:33:25.193Z,11.25
2023-03-19T06:34:26.133Z,5.63
2023-03-19T06:35:26.962Z,5.63
2023-03-19T06:36:27.614Z,5.63
2023-03-19T06:37:28.560Z,5.63
2023-03-19T06:38:29.236Z,5.63
2023-03-19T06:39:29.185Z,5.63
2023-03-19T06:40:30.390Z,11.25
2023-03-19T06:41:30.372Z,11.25
2023-03-19T06:42:31.215Z,11.25
2023-03-19T06:43:31.144Z,11.25
2023-03-19T06:44:32.654Z,11.25
2023-03-19T06:45:33.043Z,11.25
2023-03-19T06:46:33.152Z,11.25
2023-03-19T06:47:33.064Z,11.25
2023-03-19T06:48:33.704Z,11.25
2023-03-19T06:49:34.725Z,11.25
2023-03-19T06:50:35.610Z,11.25
2023-03-19T06:51:35.938Z,11.25
2023-03-19T06:52:36.268Z,11.25
2023-03-19T06:53:37.782Z,11.25
2023-03-19T06:54:38.542Z,11.25
2023-03-19T06:55:38.000Z,11.25
2023-03-19T06:56:39.224Z,11.25
2023-03-19T06:57:39.569Z,11.25
2023-03-19T06:58:40.510Z,11.25
2023-03-19T06:59:40.158Z,11.25
2023-03-19T07:00:42.325Z,11.25
2023-03-19T07:01:41.911Z,11.25
2023-03-19T07:02:42.560Z,11.25
2023-03-19T07:03:42.221Z,11.25
2023-03-19T07:04:43.558Z,11.25
2023-03-19T07:05:44.068Z,11.25
2023-03-19T07:06:44.284Z,16.88
2023-03-19T07:07:44.506Z,16.88
2023-03-19T07:08:45.372Z,16.88
2023-03-19T07:09:45.311Z,16.88
2023-03-19T07:10:47.108Z,16.88
2023-03-19T07:11:47.755Z,16.88
2023-03-19T07:12:48.057Z,16.88
2023-03-19T07:13:47.985Z,16.88
2023-03-19T07:14:48.918Z,16.88
2023-03-19T07:15:50.475Z,11.25
2023-03-19T07:16:50.743Z,11.25
2023-03-19T07:17:51.134Z,11.25
2023-03-19T07:18:52.351Z,11.25
2023-03-19T07:19:53.018Z,11.25
2023-03-19T07:20:53.654Z,11.25
2023-03-19T07:21:54.899Z,11.25
2023-03-19T07:22:55.372Z,11.25
2023-03-19T07:23:56.067Z,11.25
2023-03-19T07:24:56.282Z,11.25
2023-03-19T07:25:56.820Z,11.25
2023-03-19T07:26:56.764Z,11.25
2023-03-19T07:28:01.453Z,16.88
2023-03-19T07:28:58.391Z,16.88
2023-03-19T07:29:59.023Z,16.88
2023-03-19T07:30:59.687Z,16.88
2023-03-19T07:32:00.497Z,16.88
2023-03-19T07:33:02.085Z,16.88
2023-03-19T07:34:01.456Z,16.88
2023-03-19T07:35:01.814Z,16.88
2023-03-19T07:36:03.335Z,16.88
2023-03-19T07:37:02.974Z,22.5
2023-03-19T07:38:04.206Z,22.5
2023-03-19T07:39:04.546Z,22.5
2023-03-19T07:40:04.477Z,22.5
2023-03-19T07:41:18.497Z,22.5
2023-03-19T07:42:06.693Z,22.5
2023-03-19T07:43:07.155Z,22.5
2023-03-19T07:44:07.397Z,22.5
2023-03-19T07:45:08.632Z,22.5
2023-03-19T07:46:08.492Z,22.5
2023-03-19T07:47:19.050Z,22.5
2023-03-19T07:48:08.653Z,22.5
2023-03-19T07:49:09.590Z,22.5
2023-03-19T07:50:11.136Z,28.13
2023-03-19T07:51:11.083Z,28.13
2023-03-19T07:52:11.021Z,28.13
2023-03-19T07:53:11.773Z,28.13
2023-03-19T07:54:13.427Z,28.13
2023-03-19T07:55:13.102Z,28.13
2023-03-19T07:56:13.764Z,22.5
2023-03-19T07:57:14.675Z,22.5
2023-03-19T07:58:15.309Z,28.13
2023-03-19T07:59:15.944Z,28.13
2023-03-19T08:00:16.928Z,28.13
2023-03-19T08:01:18.153Z,28.13
2023-03-19T08:02:20.947Z,28.13
2023-03-19T08:03:19.117Z,28.13
2023-03-19T08:04:20.138Z,28.13
2023-03-19T08:05:19.810Z,33.75
2023-03-19T08:06:21.018Z,33.75
2023-03-19T08:07:21.949Z,33.75
2023-03-19T08:08:22.552Z,33.75
2023-03-19T08:09:23.155Z,33.75
2023-03-19T08:10:23.107Z,33.75
2023-03-19T08:11:24.404Z,39.38
2023-03-19T08:12:24.532Z,39.38
2023-03-19T08:13:25.311Z,39.38
2023-03-19T08:14:25.812Z,39.38
2023-03-19T08:15:25.178Z,39.38
2023-03-19T08:16:26.505Z,39.38
2023-03-19T08:17:26.307Z,39.38
2023-03-19T08:18:27.255Z,45
2023-03-19T08:19:27.203Z,45
2023-03-19T08:20:28.208Z,50.63
2023-03-19T08:21:28.427Z,50.63
2023-03-19T08:22:28.632Z,50.63
2023-03-19T08:23:29.258Z,50.63
2023-03-19T08:24:29.570Z,50.63
2023-03-19T08:25:29.297Z,56.25
2023-03-19T08:26:30.504Z,56.25
2023-03-19T08:27:31.385Z,56.25
2023-03-19T08:28:32.045Z,56.25
2023-03-19T08:29:35.517Z,61.88
2023-03-19T08:30:33.830Z,61.88
2023-03-19T08:31:34.716Z,61.88
2023-03-19T08:32:34.915Z,67.5
2023-03-19T08:33:35.439Z,67.5
2023-03-19T08:34:35.442Z,67.5
2023-03-19T08:35:36.340Z,67.5
2023-03-19T08:36:36.620Z,61.88
2023-03-19T08:37:36.831Z,56.25
2023-03-19T08:38:37.487Z,50.63
2023-03-19T08:39:38.801Z,50.63
2023-03-19T08:40:39.379Z,56.25
2023-03-19T08:41:39.613Z,61.88
2023-03-19T08:42:41.157Z,61.88
2023-03-19T08:43:40.482Z,61.88
2023-03-19T08:44:40.701Z,56.25
2023-03-19T08:45:41.649Z,56.25
2023-03-19T08:46:42.963Z,61.88
2023-03-19T08:47:43.214Z,67.5
2023-03-19T08:48:46.749Z,73.13
2023-03-19T08:49:44.248Z,78.75
2023-03-19T08:50:45.243Z,84.38
2023-03-19T08:51:45.443Z,90
2023-03-19T08:52:45.675Z,95.63
2023-03-19T08:53:46.700Z,101.25
2023-03-19T08:54:47.074Z,112.5
2023-03-19T08:55:47.567Z,118.13
2023-03-19T08:56:47.495Z,129.38
2023-03-19T08:57:48.149Z,140.63
2023-03-19T08:58:49.102Z,151.88
2023-03-19T08:59:50.650Z,163.13
2023-03-19T09:00:49.781Z,163.13
2023-03-19T09:01:49.754Z,174.38
2023-03-19T09:02:50.129Z,185.63
2023-03-19T09:03:51.610Z,185.63
2023-03-19T09:04:52.799Z,180
2023-03-19T09:05:51.826Z,174.38
2023-03-19T09:06:53.356Z,163.13
2023-03-19T09:07:53.591Z,163.13
2023-03-19T09:08:54.098Z,163.13
2023-03-19T09:09:54.710Z,163.13
2023-03-19T09:10:56.963Z,174.38
2023-03-19T09:11:55.241Z,185.63
2023-03-19T09:12:57.133Z,191.25
2023-03-19T09:13:56.451Z,191.25
2023-03-19T09:14:56.091Z,191.25
2023-03-19T09:15:57.588Z,202.5
2023-03-19T09:16:57.561Z,196.88
2023-03-19T09:17:58.217Z,202.5
2023-03-19T09:18:59.511Z,191.25
2023-03-19T09:20:00.817Z,185.63
2023-03-19T09:21:00.477Z,180
2023-03-19T09:22:01.429Z,174.38
2023-03-19T09:23:02.666Z,174.38
2023-03-19T09:24:03.026Z,180
2023-03-19T09:25:03.842Z,191.25
2023-03-19T09:26:03.787Z,213.75
2023-03-19T09:27:05.015Z,236.25
2023-03-19T09:28:05.958Z,225
2023-03-19T09:29:06.468Z,230.63
2023-03-19T09:30:06.971Z,230.63
2023-03-19T09:31:07.609Z,230.63
2023-03-19T09:32:07.937Z,230.63
2023-03-19T09:33:08.523Z,258.75
2023-03-19T09:34:08.611Z,264.38
2023-03-19T09:35:09.159Z,410.63
2023-03-19T09:36:09.454Z,376.88
2023-03-19T09:37:09.691Z,433.13
2023-03-19T09:38:10.619Z,213.75
2023-03-19T09:39:11.125Z,202.5
2023-03-19T09:40:11.890Z,191.25
2023-03-19T09:41:11.847Z,185.63
2023-03-19T09:42:12.803Z,191.25
2023-03-19T09:43:14.024Z,202.5
2023-03-19T09:44:14.100Z,213.75
2023-03-19T09:45:15.052Z,202.5
2023-03-19T09:46:15.389Z,196.88
2023-03-19T09:47:15.920Z,196.88
2023-03-19T09:48:15.594Z,196.88
2023-03-19T09:49:17.131Z,208.13
2023-03-19T09:50:16.804Z,208.13
2023-03-19T09:51:18.043Z,213.75
2023-03-19T09:52:20.665Z,219.38
2023-03-19T09:53:18.601Z,225
2023-03-19T09:54:19.640Z,236.25
2023-03-19T09:55:20.983Z,230.63
2023-03-19T09:56:20.899Z,230.63
2023-03-19T09:57:26.011Z,230.63
2023-03-19T09:58:22.956Z,230.63
2023-03-19T09:59:22.896Z,230.63
2023-03-19T10:00:24.120Z,225
2023-03-19T10:01:25.501Z,219.38
2023-03-19T10:02:25.638Z,208.13
2023-03-19T10:03:25.854Z,191.25
2023-03-19T10:04:26.470Z,180
2023-03-19T10:05:26.125Z,180
2023-03-19T10:06:27.649Z,174.38
2023-03-19T10:07:27.582Z,168.75
2023-03-19T10:08:28.279Z,163.13
2023-03-19T10:09:27.941Z,163.13
2023-03-19T10:10:29.691Z,163.13
2023-03-19T10:11:29.911Z,168.75
2023-03-19T10:12:30.471Z,174.38
2023-03-19T10:13:30.400Z,174.38
2023-03-19T10:14:32.000Z,168.75
2023-03-19T10:15:32.425Z,168.75
2023-03-19T10:16:33.213Z,163.13
2023-03-19T10:17:33.160Z,157.5
2023-03-19T10:18:33.688Z,157.5
2023-03-19T10:19:34.404Z,157.5
2023-03-19T10:20:34.189Z,157.5
2023-03-19T10:21:34.970Z,163.13
2023-03-19T10:22:35.900Z,168.75
2023-03-19T10:23:37.420Z,174.38
2023-03-19T10:24:37.807Z,180
2023-03-19T10:25:41.399Z,180
2023-03-19T10:26:38.786Z,185.63
2023-03-19T10:27:39.457Z,185.63
2023-03-19T10:28:40.954Z,185.63
2023-03-19T10:29:40.883Z,180
2023-03-19T10:30:42.112Z,185.63
2023-03-19T10:31:42.462Z,185.63
2023-03-19T10:32:43.988Z,191.25
2023-03-19T10:33:44.237Z,202.5
2023-03-19T10:34:44.966Z,202.5
2023-03-19T10:35:47.121Z,208.13
2023-03-19T10:36:46.703Z,208.13
2023-03-19T10:37:46.373Z,196.88
2023-03-19T10:38:47.591Z,180
2023-03-19T10:39:47.577Z,163.13
2023-03-19T10:40:49.229Z,140.63
2023-03-19T10:41:49.197Z,129.38
2023-03-19T10:42:50.166Z,123.75
2023-03-19T10:43:50.830Z,123.75
2023-03-19T10:44:52.156Z,118.13
2023-03-19T10:45:55.639Z,118.13
2023-03-19T10:46:53.586Z,123.75
2023-03-19T10:47:54.825Z,129.38
2023-03-19T10:48:55.770Z,135
2023-03-19T10:49:55.984Z,146.25
2023-03-19T10:50:56.949Z,157.5
2023-03-19T10:51:58.173Z,163.13
2023-03-19T10:52:58.106Z,163.13
2023-03-19T10:53:59.045Z,163.13
2023-03-19T10:55:00.738Z,163.13
2023-03-19T10:56:00.199Z,163.13
2023-03-19T10:57:00.755Z,157.5
2023-03-19T10:57:59.886Z,151.88
2023-03-19T10:59:00.838Z,135
2023-03-19T11:00:02.142Z,123.75
2023-03-19T11:01:02.417Z,118.13
2023-03-19T11:02:02.653Z,112.5
2023-03-19T11:03:03.071Z,106.88
2023-03-19T11:04:04.461Z,106.88
2023-03-19T11:05:04.591Z,106.88
2023-03-19T11:06:05.811Z,112.5
2023-03-19T11:07:05.780Z,118.13
2023-03-19T11:08:07.307Z,118.13
2023-03-19T11:09:07.539Z,118.13
2023-03-19T11:10:08.772Z,123.75
2023-03-19T11:11:09.146Z,135
2023-03-19T11:12:09.657Z,140.63
2023-03-19T11:13:09.561Z,151.88
2023-03-19T11:14:11.078Z,157.5
2023-03-19T11:15:11.293Z,163.13
2023-03-19T11:16:12.914Z,180
2023-03-19T11:17:15.789Z,196.88
2023-03-19T11:18:13.281Z,208.13
2023-03-19T11:19:13.300Z,230.63
2023-03-19T11:20:14.350Z,264.38
2023-03-19T11:21:15.314Z,275.63
2023-03-19T11:22:15.845Z,298.13
2023-03-19T11:23:15.490Z,331.88
2023-03-19T11:24:16.776Z,337.5
2023-03-19T11:25:17.401Z,315
2023-03-19T11:26:18.061Z,292.5
2023-03-19T11:27:17.982Z,270
2023-03-19T11:28:21.300Z,253.13
2023-03-19T11:29:20.012Z,247.5
2023-03-19T11:30:20.515Z,241.88
2023-03-19T11:31:20.817Z,247.5
2023-03-19T11:32:38.149Z,258.75
2023-03-19T11:33:21.735Z,264.38
2023-03-19T11:34:21.743Z,281.25
2023-03-19T11:35:22.003Z,286.88
2023-03-19T11:36:22.936Z,270
2023-03-19T11:37:22.878Z,275.63
2023-03-19T11:38:24.098Z,303.75
2023-03-19T11:39:24.340Z,337.5
2023-03-19T11:40:25.394Z,354.38
2023-03-19T11:41:26.742Z,292.5
2023-03-19T11:42:26.985Z,275.63
2023-03-19T11:43:27.390Z,399.38
2023-03-19T11:44:28.403Z,433.13
2023-03-19T11:45:28.768Z,472.5
2023-03-19T11:46:28.554Z,478.13
2023-03-19T11:47:43.049Z,421.88
2023-03-19T11:48:29.715Z,416.25
2023-03-19T11:49:30.962Z,410.63
2023-03-19T11:50:31.189Z,388.13
2023-03-19T11:51:32.462Z,410.63
2023-03-19T11:52:32.109Z,421.88
2023-03-19T11:53:33.102Z,427.5
2023-03-19T11:54:34.090Z,416.25
2023-03-19T11:55:35.102Z,286.88
2023-03-19T11:56:36.823Z,286.88
2023-03-19T11:57:37.056Z,236.25
2023-03-19T11:58:37.004Z,236.25
2023-03-19T11:59:37.665Z,253.13
2023-03-19T12:00:38.987Z,264.38
2023-03-19T12:01:39.668Z,253.13
2023-03-19T12:02:41.019Z,258.75
2023-03-19T12:03:41.252Z,264.38
2023-03-19T12:04:41.501Z,281.25
2023-03-19T12:05:42.301Z,281.25
2023-03-19T12:06:42.531Z,292.5
2023-03-19T12:07:42.177Z,365.63
2023-03-19T12:08:43.149Z,320.63
2023-03-19T12:09:43.105Z,427.5
2023-03-19T12:10:45.093Z,478.13
2023-03-19T12:11:45.727Z,427.5
2023-03-19T12:12:45.951Z,270
2023-03-19T12:13:45.887Z,230.63
2023-03-19T12:14:46.586Z,225
2023-03-19T12:15:48.508Z,219.38
2023-03-19T12:16:57.702Z,219.38
2023-03-19T12:17:48.348Z,219.38
2023-03-19T12:18:49.310Z,213.75
2023-03-19T12:19:49.557Z,219.38
2023-03-19T12:20:50.494Z,208.13
2023-03-19T12:21:50.707Z,202.5
2023-03-19T12:22:51.652Z,196.88
2023-03-19T12:23:52.576Z,202.5
2023-03-19T12:24:53.823Z,208.13
2023-03-19T12:25:53.989Z,208.13
2023-03-19T12:26:54.615Z,202.5
2023-03-19T12:27:54.552Z,196.88
2023-03-19T12:28:55.502Z,191.25
2023-03-19T12:29:56.142Z,185.63
2023-03-19T12:30:57.676Z,191.25
2023-03-19T12:31:57.910Z,191.25
2023-03-19T12:32:57.852Z,196.88
2023-03-19T12:33:58.085Z,196.88
2023-03-19T12:34:58.767Z,196.88
2023-03-19T12:35:59.741Z,196.88
2023-03-19T12:36:59.980Z,219.38
2023-03-19T12:38:00.192Z,219.38
2023-03-19T12:39:00.477Z,230.63
2023-03-19T12:40:00.506Z,196.88
2023-03-19T12:41:01.731Z,163.13
2023-03-19T12:42:02.370Z,163.13
2023-03-19T12:43:02.914Z,163.13
2023-03-19T12:44:03.183Z,168.75
2023-03-19T12:45:03.714Z,174.38
2023-03-19T12:46:03.652Z,174.38
2023-03-19T12:47:06.403Z,180
2023-03-19T12:48:05.608Z,191.25
2023-03-19T12:49:06.578Z,202.5
2023-03-19T12:50:06.239Z,213.75
2023-03-19T12:51:07.201Z,258.75
2023-03-19T12:52:08.161Z,202.5
2023-03-19T12:53:09.470Z,185.63
2023-03-19T12:54:08.855Z,185.63
2023-03-19T12:55:08.982Z,185.63
2023-03-19T12:56:09.301Z,185.63
2023-03-19T12:57:09.908Z,185.63
2023-03-19T12:58:10.166Z,185.63
2023-03-19T12:59:10.390Z,191.25
2023-03-19T13:00:11.661Z,191.25
2023-03-19T13:01:11.610Z,191.25
2023-03-19T13:02:12.547Z,185.63
2023-03-19T13:03:12.518Z,191.25
2023-03-19T13:04:13.223Z,208.13
2023-03-19T13:05:14.891Z,208.13
2023-03-19T13:06:15.331Z,275.63
2023-03-19T13:07:15.561Z,286.88
2023-03-19T13:08:16.213Z,241.88
2023-03-19T13:09:17.471Z,213.75
2023-03-19T13:10:17.581Z,213.75
2023-03-19T13:11:17.526Z,213.75
2023-03-19T13:12:19.206Z,230.63
2023-03-19T13:13:19.420Z,241.88
2023-03-19T13:14:19.054Z,247.5
2023-03-19T13:15:19.992Z,247.5
2023-03-19T13:16:20.546Z,236.25
2023-03-19T13:17:21.576Z,230.63
2023-03-19T13:18:21.841Z,236.25
2023-03-19T13:19:22.086Z,241.88
2023-03-19T13:20:22.308Z,230.63
2023-03-19T13:21:22.515Z,225
2023-03-19T13:22:23.185Z,219.38
2023-03-19T13:23:27.314Z,219.38
2023-03-19T13:24:24.557Z,219.38
2023-03-19T13:25:24.499Z,219.38
2023-03-19T13:26:25.361Z,219.38
2023-03-19T13:27:27.347Z,225
2023-03-19T13:28:27.850Z,225
2023-03-19T13:29:27.795Z,230.63
2023-03-19T13:30:27.759Z,241.88
2023-03-19T13:31:28.901Z,286.88
2023-03-19T13:32:28.896Z,258.75
2023-03-19T13:33:30.156Z,376.88
2023-03-19T13:34:30.400Z,331.88
2023-03-19T13:35:30.698Z,247.5
2023-03-19T13:36:30.651Z,236.25
2023-03-19T13:37:31.598Z,264.38
2023-03-19T13:38:32.110Z,253.13
2023-03-19T13:39:32.361Z,309.38